createdAt,value
2019-01-12T00:02:06.078Z,78.50
2019-01-12T00:07:03.411Z,76.90
2019-01-12T00:11:59.139Z,77.60
2019-01-12T00:16:54.950Z,77.30
2019-01-12T00:21:50.699Z,75.70
2019-01-12T00:26:48.877Z,73.30
2019-01-12T00:31:44.574Z,71.80
2019-01-12T00:36:40.220Z,72.20
2019-01-12T00:41:35.910Z,72.90
2019-01-12T00:46:31.626Z,72.50
2019-01-12T00:51:27.305Z,73.30
2019-01-12T00:56:23.088Z,73.20
2019-01-12T01:01:18.754Z,73.60
2019-01-12T01:06:14.459Z,75.30
2019-01-12T01:11:10.114Z,75.60
2019-01-12T01:16:05.858Z,75.80
2019-01-12T01:21:01.550Z,75.20
2019-01-12T01:25:57.237Z,73.30
2019-01-12T01:30:52.874Z,73.40
2019-01-12T01:35:48.485Z,73.40
2019-01-12T01:40:44.197Z,72.10
2019-01-12T01:45:39.891Z,73.00
2019-01-12T01:50:35.601Z,73.10
2019-01-12T01:55:31.273Z,72.70
2019-01-12T02:00:26.940Z,73.40
2019-01-12T02:05:22.609Z,73.70
2019-01-12T02:10:20.795Z,74.50
2019-01-12T02:15:16.826Z,74.30
2019-01-12T02:20:12.540Z,74.00
2019-01-12T02:25:08.476Z,74.10
2019-01-12T02:30:05.153Z,74.30
2019-01-12T02:35:06.244Z,75.00
2019-01-12T02:40:03.710Z,76.50
2019-01-12T02:44:59.436Z,77.60
2019-01-12T02:49:55.105Z,78.40
2019-01-12T02:54:50.775Z,79.30
2019-01-12T02:59:46.454Z,80.20
2019-01-12T03:04:42.118Z,81.30
2019-01-12T03:09:37.766Z,81.00
2019-01-12T03:14:33.416Z,81.30
2019-01-12T03:19:29.035Z,81.50
2019-01-12T03:24:24.702Z,80.80
2019-01-12T03:29:20.467Z,80.60
2019-01-12T03:34:16.433Z,81.10
2019-01-12T03:39:12.064Z,82.00
2019-01-12T03:44:07.758Z,82.50
2019-01-12T03:49:03.463Z,82.60
2019-01-12T03:53:59.124Z,83.40
2019-01-12T03:58:54.843Z,84.20
2019-01-12T04:03:50.422Z,84.70
2019-01-12T04:08:46.121Z,85.50
2019-01-12T04:13:41.808Z,86.00
2019-01-12T04:18:37.426Z,86.60
2019-01-12T04:23:33.022Z,87.10
2019-01-12T04:28:28.665Z,87.90
2019-01-12T04:33:24.369Z,88.80
2019-01-12T04:38:20.077Z,88.60
2019-01-12T04:43:15.750Z,89.30
2019-01-12T04:48:11.366Z,89.30
2019-01-12T04:53:07.039Z,89.90
2019-01-12T04:58:02.708Z,90.30
2019-01-12T05:02:58.374Z,90.50
2019-01-12T05:07:53.995Z,90.70
2019-01-12T05:12:49.701Z,90.90
2019-01-12T05:17:45.351Z,91.00
2019-01-12T05:22:41.036Z,91.20
2019-01-12T05:27:36.629Z,91.30
2019-01-12T05:32:32.237Z,93.40
2019-01-12T05:37:27.826Z,93.50
2019-01-12T05:42:23.425Z,92.40
2019-01-12T05:47:19.015Z,92.20
2019-01-12T05:52:14.610Z,92.30
2019-01-12T05:57:10.168Z,92.40
2019-01-12T06:02:05.789Z,92.50
2019-01-12T06:07:01.475Z,92.90
2019-01-12T06:11:57.064Z,93.10
2019-01-12T06:16:52.722Z,93.30
2019-01-12T06:21:48.386Z,93.50
2019-01-12T06:26:43.997Z,93.70
2019-01-12T06:31:39.605Z,94.00
2019-01-12T06:36:36.319Z,94.00
2019-01-12T06:41:31.953Z,94.20
2019-01-12T06:46:27.609Z,94.60
2019-01-12T06:51:23.265Z,94.80
2019-01-12T06:56:18.872Z,94.50
2019-01-12T07:01:14.594Z,94.80
2019-01-12T07:06:10.357Z,94.80
2019-01-12T07:11:06.191Z,94.90
2019-01-12T07:16:01.932Z,95.00
2019-01-12T07:20:57.661Z,95.20
2019-01-12T07:25:53.367Z,95.10
2019-01-12T07:30:49.126Z,95.00
2019-01-12T07:35:44.858Z,95.10
2019-01-12T07:40:40.604Z,95.00
2019-01-12T07:45:37.371Z,95.00
2019-01-12T07:50:33.087Z,94.80
2019-01-12T07:55:28.835Z,94.00
2019-01-12T08:00:24.665Z,93.90
2019-01-12T08:05:23.002Z,93.80
2019-01-12T08:10:21.862Z,93.70
2019-01-12T08:15:19.002Z,93.60
2019-01-12T08:20:14.745Z,92.80
2019-01-12T08:25:10.935Z,92.60
2019-01-12T08:30:12.414Z,92.20
2019-01-12T08:35:09.853Z,91.50
2019-01-12T08:40:07.410Z,90.90
2019-01-12T08:45:03.166Z,90.50
2019-01-12T08:49:58.918Z,89.30
2019-01-12T08:54:54.980Z,87.80
2019-01-12T08:59:53.473Z,85.30
2019-01-12T09:04:49.245Z,84.40
2019-01-12T09:09:44.962Z,81.80
2019-01-12T09:14:40.706Z,77.80
2019-01-12T09:19:37.490Z,77.30
2019-01-12T09:24:33.254Z,75.20
2019-01-12T09:29:29.036Z,73.00
2019-01-12T09:34:24.759Z,73.30
2019-01-12T09:39:20.488Z,72.10
2019-01-12T09:44:16.227Z,71.40
2019-01-12T09:49:11.957Z,70.40
2019-01-12T09:54:07.693Z,70.20
2019-01-12T09:59:03.465Z,69.80
2019-01-12T10:03:59.234Z,69.60
2019-01-12T10:08:55.022Z,68.20
2019-01-12T10:13:50.795Z,66.90
2019-01-12T10:18:46.559Z,68.20
2019-01-12T10:23:42.310Z,68.00
2019-01-12T10:28:40.110Z,66.60
2019-01-12T10:33:35.851Z,66.10
2019-01-12T10:38:31.614Z,63.90
2019-01-12T10:43:27.376Z,62.30
2019-01-12T10:48:23.115Z,61.30
2019-01-12T10:53:18.875Z,60.40
2019-01-12T10:58:14.634Z,59.80
2019-01-12T11:03:11.759Z,58.70
2019-01-12T11:08:07.865Z,58.10
2019-01-12T11:13:03.593Z,57.40
2019-01-12T11:17:59.330Z,55.20
2019-01-12T11:22:55.269Z,54.00
2019-01-12T11:27:50.996Z,53.70
2019-01-12T11:32:46.856Z,53.80
2019-01-12T11:37:42.801Z,53.00
2019-01-12T11:42:38.567Z,51.60
2019-01-12T11:47:34.384Z,51.30
2019-01-12T11:52:30.111Z,50.70
2019-01-12T11:57:25.858Z,50.00
2019-01-12T12:02:21.630Z,50.20
2019-01-12T12:07:17.347Z,49.30
2019-01-12T12:12:13.090Z,49.60
2019-01-12T12:17:09.034Z,48.50
2019-01-12T12:22:04.865Z,47.20
2019-01-12T12:27:00.574Z,45.20
2019-01-12T12:31:56.291Z,44.50
2019-01-12T12:36:52.022Z,44.70
2019-01-12T12:41:47.751Z,45.40
2019-01-12T12:46:43.520Z,46.40
2019-01-12T12:51:39.268Z,47.20
2019-01-12T12:56:34.986Z,48.70
2019-01-12T13:01:30.701Z,49.60
2019-01-12T13:06:26.478Z,49.80
2019-01-12T13:11:22.174Z,50.90
2019-01-12T13:16:17.931Z,52.30
2019-01-12T13:21:13.675Z,52.80
2019-01-12T13:26:09.422Z,53.20
2019-01-12T13:31:05.228Z,52.10
2019-01-12T13:36:00.966Z,50.30
2019-01-12T13:40:56.735Z,50.40
2019-01-12T13:45:52.527Z,51.90
2019-01-12T13:50:48.241Z,53.60
2019-01-12T13:55:44.003Z,55.00
2019-01-12T14:00:39.748Z,56.30
2019-01-12T14:05:35.732Z,57.70
2019-01-12T14:10:31.478Z,58.50
2019-01-12T14:15:27.344Z,59.20
2019-01-12T14:20:31.630Z,59.80
2019-01-12T14:25:27.564Z,60.60
2019-01-12T14:30:23.298Z,61.70
2019-01-12T14:35:19.174Z,62.50
2019-01-12T14:40:17.427Z,63.10
2019-01-12T14:45:19.371Z,64.70
2019-01-12T14:50:15.144Z,64.90
2019-01-12T14:55:12.437Z,65.20
2019-01-12T15:00:14.758Z,65.80
2019-01-12T15:05:13.052Z,66.30
2019-01-12T15:10:10.774Z,66.90
2019-01-12T15:15:07.827Z,67.90
2019-01-12T15:20:03.671Z,70.40
2019-01-12T15:24:59.378Z,72.00
2019-01-12T15:29:56.171Z,73.80
2019-01-12T15:34:51.878Z,75.20
2019-01-12T15:39:47.598Z,76.50
2019-01-12T15:44:43.318Z,78.30
2019-01-12T15:49:39.040Z,79.80
2019-01-12T15:54:34.763Z,81.30
2019-01-12T15:59:30.527Z,82.40
2019-01-12T16:04:26.246Z,83.30
2019-01-12T16:09:21.966Z,84.20
2019-01-12T16:14:17.680Z,85.40
2019-01-12T16:19:13.406Z,86.40
2019-01-12T16:24:10.119Z,86.60
2019-01-12T16:29:05.767Z,87.40
2019-01-12T16:34:01.503Z,88.50
2019-01-12T16:38:57.223Z,89.50
2019-01-12T16:43:52.940Z,90.20
2019-01-12T16:48:48.701Z,91.40
2019-01-12T16:53:44.408Z,91.50
2019-01-12T16:58:40.130Z,91.70
2019-01-12T17:03:35.849Z,91.70
2019-01-12T17:08:32.368Z,91.90
2019-01-12T17:13:28.083Z,92.20
2019-01-12T17:18:25.230Z,92.80
2019-01-12T17:23:20.987Z,93.20
2019-01-12T17:28:17.824Z,93.40
2019-01-12T17:33:13.562Z,93.50
2019-01-12T17:38:09.319Z,93.50
2019-01-12T17:43:05.154Z,93.60
2019-01-12T17:48:00.872Z,93.70
2019-01-12T17:52:56.870Z,93.90
2019-01-12T17:57:52.785Z,94.00
2019-01-12T18:02:48.530Z,94.30
2019-01-12T18:07:44.251Z,94.50
2019-01-12T18:12:40.901Z,94.80
2019-01-12T18:17:36.658Z,94.80
2019-01-12T18:22:32.371Z,94.90
2019-01-12T18:27:28.109Z,95.40
2019-01-12T18:32:23.860Z,95.70
2019-01-12T18:37:19.636Z,96.00
2019-01-12T18:42:15.402Z,96.00
2019-01-12T18:47:11.248Z,96.00
2019-01-12T18:52:09.942Z,96.10
2019-01-12T18:57:05.748Z,96.00
2019-01-12T19:02:02.519Z,96.40
2019-01-12T19:06:58.246Z,97.10
2019-01-12T19:11:54.225Z,96.70
2019-01-12T19:16:49.982Z,96.70
2019-01-12T19:21:45.915Z,96.90
2019-01-12T19:26:41.709Z,97.50
2019-01-12T19:31:37.492Z,97.70
2019-01-12T19:36:33.268Z,97.60
2019-01-12T19:41:29.001Z,97.70
2019-01-12T19:46:24.787Z,97.70
2019-01-12T19:51:20.947Z,97.80
2019-01-12T19:56:16.803Z,98.10
2019-01-12T20:01:12.599Z,98.10
2019-01-12T20:06:08.789Z,98.10
2019-01-12T20:11:04.566Z,98.30
2019-01-12T20:16:00.309Z,98.40
2019-01-12T20:20:56.063Z,99.00
2019-01-12T20:25:52.038Z,99.00
2019-01-12T20:31:30.853Z,99.10
2019-01-12T20:37:06.466Z,99.10
2019-01-12T20:42:51.130Z,99.10
2019-01-12T20:48:17.051Z,99.10
2019-01-12T20:53:58.158Z,99.30
2019-01-12T20:59:28.214Z,99.20
2019-01-12T21:05:07.120Z,99.30
2019-01-12T21:10:42.872Z,99.60
2019-01-12T21:16:03.333Z,99.70
2019-01-12T21:20:59.974Z,99.80
2019-01-12T21:25:56.538Z,99.90
2019-01-12T21:30:53.586Z,99.90
2019-01-12T21:35:51.206Z,99.90
2019-01-12T21:40:47.990Z,99.90
2019-01-12T21:45:44.920Z,99.90
2019-01-12T21:50:41.676Z,99.90
2019-01-12T21:55:38.479Z,99.90
2019-01-12T22:00:35.112Z,99.90
2019-01-12T22:05:32.402Z,99.90
2019-01-12T22:10:29.418Z,99.90
2019-01-12T22:15:26.161Z,99.90
2019-01-12T22:20:22.943Z,99.90
2019-01-12T22:25:19.898Z,99.90
2019-01-12T22:30:18.278Z,99.90
2019-01-12T22:35:14.960Z,99.90
2019-01-12T22:40:17.739Z,99.90
2019-01-12T22:45:14.609Z,99.90
2019-01-12T22:50:12.713Z,99.90
2019-01-12T22:55:11.102Z,99.90
2019-01-12T23:00:36.210Z,99.90
2019-01-12T23:05:34.437Z,99.90
2019-01-12T23:10:31.595Z,99.90
2019-01-12T23:15:28.106Z,99.90
2019-01-12T23:20:26.014Z,99.90
2019-01-12T23:25:23.533Z,99.90
2019-01-12T23:30:20.591Z,99.90
2019-01-12T23:35:17.439Z,99.90
2019-01-12T23:40:14.737Z,99.90
2019-01-12T23:45:11.650Z,99.90
2019-01-12T23:50:09.182Z,99.90
2019-01-12T23:55:06.754Z,99.90
